createdAt,value
2024-03-15T00:00:21.679Z,24.80
2024-03-15T00:02:48.650Z,24.80
2024-03-15T00:05:22.299Z,24.80
2024-03-15T00:07:49.050Z,24.80
2024-03-15T00:10:15.933Z,24.80
2024-03-15T00:12:42.966Z,24.79
2024-03-15T00:15:11.883Z,24.80
2024-03-15T00:17:38.511Z,24.79
2024-03-15T00:20:12.314Z,24.78
2024-03-15T00:22:38.950Z,24.77
2024-03-15T00:25:15.205Z,24.77
2024-03-15T00:27:42.298Z,24.78
2024-03-15T00:30:09.650Z,24.78
2024-03-15T00:32:39.396Z,24.77
2024-03-15T00:35:09.919Z,24.77
2024-03-15T00:37:38.826Z,24.77
2024-03-15T00:40:08.271Z,24.75
2024-03-15T00:42:34.950Z,24.74
2024-03-15T00:45:03.840Z,24.75
2024-03-15T00:47:31.817Z,24.74
2024-03-15T00:49:58.403Z,24.76
2024-03-15T00:52:27.060Z,24.74
2024-03-15T00:54:53.697Z,24.75
2024-03-15T00:57:22.480Z,24.74
2024-03-15T00:59:49.168Z,24.74
2024-03-15T01:02:21.197Z,24.75
2024-03-15T01:04:47.865Z,24.72
2024-03-15T01:07:16.135Z,24.74
2024-03-15T01:09:47.787Z,24.74
2024-03-15T01:12:16.709Z,24.74
2024-03-15T01:14:43.268Z,24.74
2024-03-15T01:17:12.482Z,24.72
2024-03-15T01:19:39.025Z,24.75
2024-03-15T01:22:05.679Z,24.72
2024-03-15T01:24:32.244Z,24.73
2024-03-15T01:26:58.777Z,24.72
2024-03-15T01:29:29.369Z,24.72
2024-03-15T01:31:56.044Z,24.71
2024-03-15T01:34:23.147Z,24.72
2024-03-15T01:36:49.701Z,24.72
2024-03-15T01:39:16.565Z,24.72
2024-03-15T01:41:45.573Z,24.70
2024-03-15T01:44:12.192Z,24.69
2024-03-15T01:46:43.300Z,24.70
2024-03-15T01:49:16.139Z,24.69
2024-03-15T01:51:45.160Z,24.69
2024-03-15T01:54:12.107Z,24.69
2024-03-15T01:56:38.844Z,24.69
2024-03-15T01:59:05.458Z,24.70
2024-03-15T02:01:32.636Z,24.70
2024-03-15T02:04:00.188Z,24.69
2024-03-15T02:06:26.739Z,24.70
2024-03-15T02:08:56.682Z,24.68
2024-03-15T02:11:23.971Z,24.70
2024-03-15T02:13:51.243Z,24.69
2024-03-15T02:16:17.882Z,24.69
2024-03-15T02:18:44.666Z,24.70
2024-03-15T02:21:13.784Z,24.68
2024-03-15T02:23:41.253Z,24.69
2024-03-15T02:26:08.605Z,24.68
2024-03-15T02:28:35.353Z,24.68
2024-03-15T02:31:02.002Z,24.69
2024-03-15T02:33:28.676Z,24.67
2024-03-15T02:35:57.590Z,24.68
2024-03-15T02:38:27.987Z,24.68
2024-03-15T02:40:55.020Z,24.67
2024-03-15T02:43:21.579Z,24.68
2024-03-15T02:45:51.285Z,24.67
2024-03-15T02:48:18.180Z,24.66
2024-03-15T02:50:44.812Z,24.69
2024-03-15T02:53:13.555Z,24.68
2024-03-15T02:55:40.238Z,24.67
2024-03-15T02:58:09.043Z,24.67
2024-03-15T03:00:38.220Z,24.67
2024-03-15T03:03:06.799Z,24.68
2024-03-15T03:05:37.276Z,24.67
2024-03-15T03:08:05.603Z,24.66
2024-03-15T03:10:37.768Z,24.67
2024-03-15T03:13:04.615Z,24.66
2024-03-15T03:15:33.637Z,24.66
2024-03-15T03:18:00.675Z,24.67
2024-03-15T03:20:34.063Z,24.66
2024-03-15T03:23:01.126Z,24.66
2024-03-15T03:25:27.685Z,24.67
2024-03-15T03:27:54.379Z,24.67
2024-03-15T03:30:21.106Z,24.66
2024-03-15T03:32:47.736Z,24.66
2024-03-15T03:35:14.403Z,24.65
2024-03-15T03:37:41.014Z,24.66
2024-03-15T03:40:16.183Z,24.64
2024-03-15T03:42:45.965Z,24.64
2024-03-15T03:45:23.951Z,24.65
2024-03-15T03:47:51.392Z,24.65
2024-03-15T03:50:21.303Z,24.65
2024-03-15T03:52:48.353Z,24.64
2024-03-15T03:55:15.333Z,24.64
2024-03-15T03:57:46.172Z,24.65
2024-03-15T04:00:18.929Z,24.65
2024-03-15T04:02:47.775Z,24.66
2024-03-15T04:05:19.466Z,24.64
2024-03-15T04:07:49.776Z,24.64
2024-03-15T04:10:19.505Z,24.64
2024-03-15T04:12:47.184Z,24.64
2024-03-15T04:15:25.733Z,24.64
2024-03-15T04:18:00.242Z,24.63
2024-03-15T04:20:27.789Z,24.63
2024-03-15T04:22:54.717Z,24.64
2024-03-15T04:25:21.795Z,24.64
2024-03-15T04:27:53.142Z,24.65
2024-03-15T04:30:23.328Z,24.64
2024-03-15T04:32:53.501Z,24.64
2024-03-15T04:35:24.173Z,24.64
2024-03-15T04:37:55.701Z,24.64
2024-03-15T04:40:22.260Z,24.64
2024-03-15T04:42:52.395Z,24.65
2024-03-15T04:45:19.101Z,24.63
2024-03-15T04:47:45.953Z,24.64
2024-03-15T04:50:12.659Z,24.63
2024-03-15T04:52:42.371Z,24.61
2024-03-15T04:55:11.484Z,24.63
2024-03-15T04:57:39.984Z,24.63
2024-03-15T05:00:21.042Z,24.62
2024-03-15T05:02:52.141Z,24.63
2024-03-15T05:05:22.842Z,24.63
2024-03-15T05:07:54.809Z,24.64
2024-03-15T05:10:23.862Z,24.66
2024-03-15T05:12:54.476Z,24.65
2024-03-15T05:15:23.573Z,24.63
2024-03-15T05:17:50.483Z,24.63
2024-03-15T05:20:17.293Z,24.64
2024-03-15T05:22:50.828Z,24.64
2024-03-15T05:25:22.273Z,24.62
2024-03-15T05:27:50.162Z,24.63
2024-03-15T05:30:19.928Z,24.63
2024-03-15T05:32:47.057Z,24.63
2024-03-15T05:35:19.368Z,24.63
2024-03-15T05:37:46.617Z,24.61
2024-03-15T05:40:14.097Z,24.62
2024-03-15T05:42:45.692Z,24.64
2024-03-15T05:45:14.210Z,24.63
2024-03-15T05:47:40.949Z,24.62
2024-03-15T05:50:08.419Z,24.63
2024-03-15T05:52:40.199Z,24.64
2024-03-15T05:55:12.886Z,24.61
2024-03-15T05:57:44.193Z,24.63
2024-03-15T06:00:17.169Z,24.63
2024-03-15T06:02:45.293Z,24.64
2024-03-15T06:05:12.076Z,24.63
2024-03-15T06:07:40.922Z,24.65
2024-03-15T06:10:08.032Z,24.62
2024-03-15T06:12:37.362Z,24.62
2024-03-15T06:15:04.862Z,24.61
2024-03-15T06:17:34.250Z,24.63
2024-03-15T06:20:04.585Z,24.62
2024-03-15T06:22:31.777Z,24.63
2024-03-15T06:25:00.353Z,24.62
2024-03-15T06:27:29.773Z,24.62
2024-03-15T06:29:56.845Z,24.64
2024-03-15T06:32:30.707Z,24.63
2024-03-15T06:35:03.802Z,24.65
2024-03-15T06:37:30.502Z,24.64
2024-03-15T06:39:57.046Z,24.65
2024-03-15T06:42:38.906Z,24.63
2024-03-15T06:45:25.090Z,24.63
2024-03-15T06:48:04.470Z,24.64
2024-03-15T06:51:00.394Z,24.64
2024-03-15T06:53:29.735Z,24.65
2024-03-15T06:55:59.489Z,24.53
2024-03-15T06:58:29.287Z,23.95
2024-03-15T07:00:59.423Z,23.78
2024-03-15T07:03:26.143Z,23.74
2024-03-15T07:05:59.157Z,23.78
2024-03-15T07:08:25.765Z,23.84
2024-03-15T07:10:52.396Z,23.86
2024-03-15T07:13:19.296Z,23.92
2024-03-15T07:15:45.867Z,23.96
2024-03-15T07:18:15.088Z,24.03
2024-03-15T07:20:42.635Z,24.10
2024-03-15T07:23:09.168Z,24.12
2024-03-15T07:25:38.827Z,24.13
2024-03-15T07:28:05.796Z,24.14
2024-03-15T07:30:32.828Z,24.17
2024-03-15T07:32:59.452Z,24.17
2024-03-15T07:35:28.711Z,24.19
2024-03-15T07:37:55.460Z,24.20
2024-03-15T07:40:22.051Z,24.20
2024-03-15T07:42:49.883Z,24.20
2024-03-15T07:45:17.415Z,24.23
2024-03-15T07:47:44.074Z,24.19
2024-03-15T07:50:13.444Z,24.25
2024-03-15T07:52:44.652Z,24.26
2024-03-15T07:55:14.104Z,24.27
2024-03-15T07:57:41.743Z,24.26
2024-03-15T08:00:10.659Z,24.22
2024-03-15T08:02:37.322Z,24.25
2024-03-15T08:05:08.709Z,24.22
2024-03-15T08:07:35.696Z,24.25
2024-03-15T08:10:06.790Z,24.25
2024-03-15T08:12:33.597Z,24.25
2024-03-15T08:15:03.584Z,24.24
2024-03-15T08:17:32.526Z,24.23
2024-03-15T08:19:59.079Z,24.22
2024-03-15T08:22:28.528Z,24.21
2024-03-15T08:24:57.492Z,24.19
2024-03-15T08:27:24.078Z,24.21
2024-03-15T08:29:50.671Z,24.19
2024-03-15T08:32:19.572Z,24.19
2024-03-15T08:34:50.232Z,24.16
2024-03-15T08:37:19.096Z,24.17
2024-03-15T08:39:48.401Z,24.16
2024-03-15T08:42:17.471Z,24.16
2024-03-15T08:44:47.988Z,24.16
2024-03-15T08:47:17.154Z,24.14
2024-03-15T08:49:43.942Z,24.14
2024-03-15T08:52:10.747Z,24.11
2024-03-15T08:54:37.524Z,24.11
2024-03-15T08:57:06.138Z,24.11
2024-03-15T08:59:32.752Z,24.09
2024-03-15T09:01:59.578Z,24.10
2024-03-15T09:04:26.990Z,24.10
2024-03-15T09:06:56.907Z,24.09
2024-03-15T09:09:33.896Z,24.07
2024-03-15T09:12:00.698Z,24.09
2024-03-15T09:14:30.248Z,24.08
2024-03-15T09:17:00.071Z,24.08
2024-03-15T09:19:29.566Z,24.08
2024-03-15T09:22:00.622Z,24.08
2024-03-15T09:24:27.678Z,24.07
2024-03-15T09:26:57.079Z,24.07
2024-03-15T09:29:24.556Z,24.08
2024-03-15T09:32:07.229Z,24.08
2024-03-15T09:34:41.667Z,24.09
2024-03-15T09:37:13.911Z,24.07
2024-03-15T09:39:44.137Z,24.05
2024-03-15T09:42:24.025Z,24.05
2024-03-15T09:44:51.134Z,24.06
2024-03-15T09:47:17.867Z,24.04
2024-03-15T09:49:47.670Z,24.05
2024-03-15T09:52:21.464Z,24.03
2024-03-15T09:54:50.435Z,24.04
2024-03-15T09:57:23.353Z,24.04
2024-03-15T09:59:55.103Z,24.02
2024-03-15T10:02:25.215Z,24.04
2024-03-15T10:05:00.173Z,24.01
2024-03-15T10:07:29.944Z,24.02
2024-03-15T10:09:59.079Z,24.00
2024-03-15T10:12:25.808Z,24.01
2024-03-15T10:14:54.910Z,24.00
2024-03-15T10:17:22.439Z,24.01
2024-03-15T10:19:48.945Z,24.01
2024-03-15T10:22:15.569Z,24.01
2024-03-15T10:24:42.137Z,24.03
2024-03-15T10:27:14.304Z,24.01
2024-03-15T10:29:44.824Z,24.01
2024-03-15T10:32:12.145Z,23.99
2024-03-15T10:34:39.239Z,24.00
2024-03-15T10:37:13.710Z,24.00
2024-03-15T10:39:41.933Z,24.02
2024-03-15T10:42:14.449Z,24.00
2024-03-15T10:44:41.253Z,24.01
2024-03-15T10:47:16.006Z,23.99
2024-03-15T10:49:43.451Z,23.98
2024-03-15T10:52:13.357Z,24.01
2024-03-15T10:54:42.844Z,24.02
2024-03-15T10:57:12.962Z,24.03
2024-03-15T10:59:42.511Z,24.02
2024-03-15T11:02:14.511Z,24.02
2024-03-15T11:04:41.144Z,24.01
2024-03-15T11:07:10.914Z,24.02
2024-03-15T11:09:43.151Z,24.02
2024-03-15T11:12:16.113Z,24.02
2024-03-15T11:14:43.039Z,24.05
2024-03-15T11:17:20.201Z,24.03
2024-03-15T11:19:48.734Z,24.04
2024-03-15T11:22:21.560Z,24.05
2024-03-15T11:24:51.323Z,24.04
2024-03-15T11:27:18.418Z,24.04
2024-03-15T11:29:50.836Z,24.03
2024-03-15T11:32:18.658Z,24.02
2024-03-15T11:34:48.340Z,24.02
2024-03-15T11:37:22.004Z,24.06
2024-03-15T11:39:59.233Z,24.04
2024-03-15T11:42:26.134Z,24.03
2024-03-15T11:44:57.733Z,24.03
2024-03-15T11:47:25.855Z,24.04
2024-03-15T11:49:58.016Z,24.03
2024-03-15T11:52:29.402Z,24.05
2024-03-15T11:54:59.383Z,24.04
2024-03-15T11:57:32.548Z,24.03
2024-03-15T11:59:59.101Z,24.03
2024-03-15T12:02:27.542Z,24.03
2024-03-15T12:04:55.381Z,24.02
2024-03-15T12:07:22.031Z,24.01
2024-03-15T12:09:50.771Z,24.02
2024-03-15T12:12:22.537Z,24.01
2024-03-15T12:14:51.776Z,24.01
2024-03-15T12:17:18.957Z,24.02
2024-03-15T12:19:45.581Z,24.01
2024-03-15T12:22:14.764Z,24.02
2024-03-15T12:24:44.286Z,24.01
2024-03-15T12:27:11.351Z,24.03
2024-03-15T12:29:40.090Z,24.03
2024-03-15T12:32:06.825Z,24.05
2024-03-15T12:34:33.392Z,24.04
2024-03-15T12:37:02.796Z,24.02
2024-03-15T12:39:29.496Z,24.06
2024-03-15T12:42:01.117Z,24.05
2024-03-15T12:44:27.535Z,24.06
2024-03-15T12:46:56.866Z,24.07
2024-03-15T12:49:25.726Z,24.07
2024-03-15T12:51:55.074Z,24.07
2024-03-15T12:54:26.514Z,24.08
2024-03-15T12:56:53.080Z,24.09
2024-03-15T12:59:19.619Z,24.09
2024-03-15T13:01:46.272Z,24.10
2024-03-15T13:04:15.246Z,24.10
2024-03-15T13:06:42.601Z,24.09
2024-03-15T13:09:09.272Z,24.11
2024-03-15T13:11:36.842Z,24.13
2024-03-15T13:14:03.710Z,24.11
2024-03-15T13:16:35.170Z,24.12
2024-03-15T13:19:01.797Z,24.14
2024-03-15T13:21:31.287Z,24.14
2024-03-15T13:24:00.089Z,24.15
2024-03-15T13:26:26.685Z,24.19
2024-03-15T13:28:55.112Z,24.20
2024-03-15T13:31:22.179Z,24.19
2024-03-15T13:33:51.130Z,24.18
2024-03-15T13:36:17.858Z,24.19
2024-03-15T13:38:48.568Z,24.19
2024-03-15T13:41:15.324Z,24.19
2024-03-15T13:43:43.990Z,24.19
2024-03-15T13:46:13.964Z,24.18
2024-03-15T13:48:45.171Z,24.20
2024-03-15T13:51:14.850Z,24.18
2024-03-15T13:53:45.989Z,24.17
2024-03-15T13:56:14.261Z,24.19
2024-03-15T13:58:41.102Z,24.19
2024-03-15T14:01:12.885Z,24.20
2024-03-15T14:03:42.107Z,24.20
2024-03-15T14:06:11.536Z,24.20
2024-03-15T14:08:38.178Z,24.21
2024-03-15T14:11:04.847Z,24.21
2024-03-15T14:13:33.613Z,24.21
2024-03-15T14:16:01.615Z,24.21
2024-03-15T14:18:32.663Z,24.25
2024-03-15T14:20:59.379Z,24.25
2024-03-15T14:23:27.826Z,24.31
2024-03-15T14:25:56.640Z,24.40
2024-03-15T14:28:29.462Z,24.40
2024-03-15T14:31:02.241Z,24.40
2024-03-15T14:33:32.929Z,24.41
2024-03-15T14:36:02.560Z,24.44
2024-03-15T14:38:31.229Z,24.48
2024-03-15T14:40:58.232Z,24.49
2024-03-15T14:43:25.245Z,24.51
2024-03-15T14:45:52.573Z,24.50
2024-03-15T14:48:24.189Z,24.53
2024-03-15T14:50:52.272Z,24.59
2024-03-15T14:53:21.533Z,24.60
2024-03-15T14:55:48.299Z,24.60
2024-03-15T14:58:17.197Z,24.62
2024-03-15T15:00:45.219Z,24.65
2024-03-15T15:03:12.627Z,24.66
2024-03-15T15:05:39.899Z,24.68
2024-03-15T15:08:09.762Z,24.68
2024-03-15T15:10:39.525Z,24.71
2024-03-15T15:13:07.688Z,24.74
2024-03-15T15:15:35.884Z,24.76
2024-03-15T15:18:04.934Z,24.77
2024-03-15T15:20:34.283Z,24.79
2024-03-15T15:23:07.031Z,24.81
2024-03-15T15:25:38.472Z,24.84
2024-03-15T15:28:07.666Z,24.86
2024-03-15T15:30:34.800Z,24.88
2024-03-15T15:33:05.049Z,24.92
2024-03-15T15:35:31.968Z,24.95
2024-03-15T15:38:00.018Z,24.99
2024-03-15T15:40:31.804Z,25.02
2024-03-15T15:42:59.358Z,25.06
2024-03-15T15:45:32.761Z,25.07
2024-03-15T15:48:01.049Z,25.13
2024-03-15T15:50:30.353Z,25.14
2024-03-15T15:52:57.027Z,25.16
2024-03-15T15:55:24.408Z,25.18
2024-03-15T15:57:56.116Z,25.21
2024-03-15T16:00:25.726Z,25.23
2024-03-15T16:02:54.657Z,25.26
2024-03-15T16:05:21.375Z,25.27
2024-03-15T16:07:48.065Z,25.28
2024-03-15T16:10:16.655Z,25.29
2024-03-15T16:12:49.124Z,25.32
2024-03-15T16:15:15.828Z,25.38
2024-03-15T16:17:42.707Z,25.39
2024-03-15T16:20:14.421Z,25.44
2024-03-15T16:22:41.093Z,25.50
2024-03-15T16:25:08.100Z,25.50
2024-03-15T16:27:34.951Z,25.50
2024-03-15T16:30:05.617Z,25.49
2024-03-15T16:32:33.545Z,25.55
2024-03-15T16:35:07.594Z,25.56
2024-03-15T16:37:35.100Z,25.58
2024-03-15T16:40:02.048Z,25.59
2024-03-15T16:42:33.234Z,25.61
2024-03-15T16:45:03.013Z,25.63
2024-03-15T16:47:30.000Z,25.64
2024-03-15T16:50:01.401Z,25.66
2024-03-15T16:52:29.589Z,25.68
2024-03-15T16:54:56.527Z,25.67
2024-03-15T16:57:28.172Z,25.69
2024-03-15T16:59:54.804Z,25.70
2024-03-15T17:02:21.681Z,25.71
2024-03-15T17:04:50.597Z,25.70
2024-03-15T17:07:17.238Z,25.69
2024-03-15T17:09:46.127Z,25.68
2024-03-15T17:12:12.650Z,25.65
2024-03-15T17:14:39.202Z,25.61
2024-03-15T17:17:12.166Z,25.61
2024-03-15T17:19:42.276Z,25.62
2024-03-15T17:22:14.522Z,25.66
2024-03-15T17:24:41.120Z,25.69
2024-03-15T17:27:09.942Z,25.71
2024-03-15T17:29:38.504Z,25.73
2024-03-15T17:32:05.193Z,25.73
2024-03-15T17:34:34.413Z,25.71
2024-03-15T17:37:01.244Z,25.76
2024-03-15T17:39:30.180Z,25.77
2024-03-15T17:41:56.836Z,25.79
2024-03-15T17:44:25.668Z,25.79
2024-03-15T17:46:52.645Z,25.85
2024-03-15T17:49:19.230Z,25.84
2024-03-15T17:51:48.512Z,25.79
2024-03-15T17:54:15.074Z,25.78
2024-03-15T17:56:44.366Z,25.79
2024-03-15T17:59:13.239Z,25.83
2024-03-15T18:01:39.836Z,25.82
2024-03-15T18:04:08.774Z,25.84
2024-03-15T18:06:37.752Z,25.86
2024-03-15T18:09:04.737Z,25.87
2024-03-15T18:11:31.448Z,25.86
2024-03-15T18:13:58.095Z,25.92
2024-03-15T18:16:27.426Z,25.92
2024-03-15T18:18:56.709Z,25.91
2024-03-15T18:21:25.662Z,25.92
2024-03-15T18:23:52.345Z,25.92
2024-03-15T18:26:18.963Z,25.94
2024-03-15T18:28:45.762Z,25.96
2024-03-15T18:31:15.360Z,25.94
2024-03-15T18:33:43.303Z,25.96
2024-03-15T18:36:15.252Z,25.96
2024-03-15T18:38:42.079Z,25.95
2024-03-15T18:41:10.886Z,25.91
2024-03-15T18:43:39.904Z,25.91
2024-03-15T18:46:09.590Z,25.87
2024-03-15T18:48:36.414Z,25.82
2024-03-15T18:51:06.426Z,25.77
2024-03-15T18:53:33.020Z,25.74
2024-03-15T18:56:01.960Z,25.69
2024-03-15T18:58:30.895Z,25.64
2024-03-15T19:01:01.585Z,25.61
2024-03-15T19:03:28.320Z,25.60
2024-03-15T19:05:54.950Z,25.57
2024-03-15T19:08:23.948Z,25.54
2024-03-15T19:10:50.550Z,25.52
2024-03-15T19:13:17.234Z,25.48
2024-03-15T19:15:44.178Z,25.48
2024-03-15T19:18:13.254Z,25.46
2024-03-15T19:20:39.826Z,25.43
2024-03-15T19:23:09.387Z,25.43
2024-03-15T19:25:37.180Z,25.41
2024-03-15T19:28:04.591Z,25.42
2024-03-15T19:30:33.713Z,25.38
2024-03-15T19:33:03.452Z,25.37
2024-03-15T19:35:32.297Z,25.38
2024-03-15T19:37:59.009Z,25.37
2024-03-15T19:40:26.979Z,25.35
2024-03-15T19:42:53.837Z,25.33
2024-03-15T19:45:20.563Z,25.33
2024-03-15T19:47:47.217Z,25.31
2024-03-15T19:50:14.188Z,25.31
2024-03-15T19:52:40.701Z,25.30
2024-03-15T19:55:08.139Z,25.30
2024-03-15T19:57:35.019Z,25.29
2024-03-15T20:00:02.183Z,25.28
2024-03-15T20:02:29.387Z,25.28
2024-03-15T20:04:56.460Z,25.27
2024-03-15T20:07:25.272Z,25.28
2024-03-15T20:09:51.900Z,25.27
2024-03-15T20:12:19.397Z,25.24
2024-03-15T20:14:49.900Z,25.24
2024-03-15T20:17:16.490Z,25.24
2024-03-15T20:19:42.992Z,25.25
2024-03-15T20:22:11.826Z,25.20
2024-03-15T20:24:38.501Z,25.22
2024-03-15T20:27:05.590Z,25.20
2024-03-15T20:29:36.635Z,25.21
2024-03-15T20:32:10.527Z,25.20
2024-03-15T20:34:37.655Z,25.20
2024-03-15T20:37:07.510Z,25.19
2024-03-15T20:39:37.077Z,25.19
2024-03-15T20:42:06.025Z,25.19
2024-03-15T20:44:37.269Z,25.19
2024-03-15T20:47:05.167Z,25.19
2024-03-15T20:49:34.054Z,25.19
2024-03-15T20:52:01.522Z,25.18
2024-03-15T20:54:28.459Z,25.19
2024-03-15T20:56:58.373Z,25.19
2024-03-15T20:59:27.760Z,25.17
2024-03-15T21:01:58.228Z,25.18
2024-03-15T21:04:28.076Z,25.19
2024-03-15T21:06:54.896Z,25.24
2024-03-15T21:09:23.834Z,25.27
2024-03-15T21:11:52.584Z,25.26
2024-03-15T21:14:20.157Z,25.26
2024-03-15T21:16:46.719Z,25.27
2024-03-15T21:19:15.793Z,25.27
2024-03-15T21:21:44.771Z,25.27
2024-03-15T21:24:11.507Z,25.28
2024-03-15T21:26:38.235Z,25.28
2024-03-15T21:29:04.726Z,25.28
2024-03-15T21:31:31.262Z,25.27
2024-03-15T21:33:59.973Z,25.27
2024-03-15T21:36:27.569Z,25.26
2024-03-15T21:38:54.189Z,25.27
2024-03-15T21:41:20.741Z,25.27
2024-03-15T21:43:50.384Z,25.27
2024-03-15T21:46:33.193Z,25.26
2024-03-15T21:49:02.135Z,25.27
2024-03-15T21:51:28.996Z,25.27
2024-03-15T21:53:58.122Z,25.27
2024-03-15T21:56:24.643Z,25.27
2024-03-15T21:58:51.474Z,25.28
2024-03-15T22:01:18.867Z,25.27
2024-03-15T22:03:49.237Z,25.28
2024-03-15T22:06:15.979Z,25.28
2024-03-15T22:08:42.578Z,25.29
2024-03-15T22:11:11.643Z,25.28
2024-03-15T22:13:38.396Z,25.29
2024-03-15T22:16:05.481Z,25.29
2024-03-15T22:18:34.417Z,25.29
2024-03-15T22:21:05.300Z,25.29
2024-03-15T22:23:34.101Z,25.28
2024-03-15T22:26:01.620Z,25.28
2024-03-15T22:28:31.292Z,25.29
2024-03-15T22:30:57.824Z,25.27
2024-03-15T22:33:26.993Z,25.29
2024-03-15T22:36:00.756Z,25.29
2024-03-15T22:38:52.684Z,25.29
2024-03-15T22:41:23.230Z,25.30
2024-03-15T22:43:52.418Z,25.31
2024-03-15T22:46:23.812Z,25.29
2024-03-15T22:48:52.837Z,25.30
2024-03-15T22:51:21.920Z,25.29
2024-03-15T22:53:48.650Z,25.31
2024-03-15T22:56:15.261Z,25.31
2024-03-15T22:58:41.798Z,25.29
2024-03-15T23:01:12.904Z,25.30
2024-03-15T23:03:40.904Z,25.30
2024-03-15T23:06:11.229Z,25.31
2024-03-15T23:08:40.216Z,25.30
2024-03-15T23:11:07.348Z,25.31
2024-03-15T23:13:36.229Z,25.31
2024-03-15T23:16:04.810Z,25.31
2024-03-15T23:18:31.484Z,25.31
2024-03-15T23:21:02.372Z,25.30
2024-03-15T23:23:30.332Z,25.31
2024-03-15T23:25:56.978Z,25.32
2024-03-15T23:28:26.668Z,25.32
2024-03-15T23:30:55.622Z,25.31
2024-03-15T23:33:25.150Z,25.31
2024-03-15T23:35:54.661Z,25.30
2024-03-15T23:38:21.233Z,25.31
2024-03-15T23:40:50.089Z,25.32
2024-03-15T23:43:22.635Z,25.31
2024-03-15T23:45:53.887Z,25.30
2024-03-15T23:48:31.992Z,25.31
2024-03-15T23:51:00.841Z,25.31
2024-03-15T23:53:27.538Z,25.31
2024-03-15T23:55:55.115Z,25.32
2024-03-15T23:58:22.409Z,25.31
